Time;durP1;ratioP1;P1;durP2;ratioP2;P2;SDS_P1;SDS_P2;PMS_P1;PMS_P2;Temp;Humidity;BMP_temperature;BMP_pressure;BME280_temperature;BME280_humidity;BME280_pressure;Samples;Min_cycle;Max_cycle;Signal;HPM_P1;HPM_P2
2023/03/01 00:01:18;;;;;;;31.95;15.30;;;-0.80;99.90;;;;;;5060831;28;20127;-66
2023/03/01 00:03:44;;;;;;;32.17;15.25;;;-0.90;99.90;;;;;;5069570;28;20451;-67
2023/03/01 00:06:10;;;;;;;31.80;14.75;;;-0.90;99.90;;;;;;5084133;28;20063;-67
2023/03/01 00:08:36;;;;;;;32.85;17.02;;;-1.00;99.90;;;;;;5078810;28;20044;-66
2023/03/01 00:11:18;;;;;;;30.77;15.73;;;-1.00;99.90;;;;;;5073085;28;20028;-66
2023/03/01 00:13:45;;;;;;;36.38;16.88;;;-1.00;99.90;;;;;;5053682;28;20036;-66
2023/03/01 00:16:14;;;;;;;32.83;16.80;;;-0.90;99.90;;;;;;5066192;28;20068;-66
2023/03/01 00:18:40;;;;;;;28.15;14.35;;;-0.90;99.90;;;;;;5093267;28;20032;-66
2023/03/01 00:21:05;;;;;;;31.85;16.70;;;-0.90;99.90;;;;;;5092637;28;20058;-69
2023/03/01 00:23:34;;;;;;;33.28;16.40;;;-0.90;99.90;;;;;;5090969;28;20519;-67
2023/03/01 00:26:00;;;;;;;32.05;16.67;;;-1.00;99.90;;;;;;5068716;28;20052;-68
2023/03/01 00:28:26;;;;;;;34.47;17.35;;;-1.10;99.90;;;;;;5092402;28;20024;-69
2023/03/01 00:30:52;;;;;;;38.20;17.48;;;-1.10;99.90;;;;;;5071064;28;20051;-68
2023/03/01 00:33:18;;;;;;;34.75;17.77;;;-1.20;99.90;;;;;;5069069;28;20040;-68
2023/03/01 00:35:44;;;;;;;37.03;17.98;;;-1.20;99.90;;;;;;5073666;28;20467;-68
2023/03/01 00:38:09;;;;;;;35.15;16.85;;;-1.30;99.90;;;;;;5085944;28;20114;-68
2023/03/01 00:40:36;;;;;;;33.00;17.08;;;-1.30;99.90;;;;;;5082297;28;20086;-68
2023/03/01 00:43:02;;;;;;;33.80;16.90;;;-1.40;99.90;;;;;;5078999;28;20379;-69
2023/03/01 00:45:30;;;;;;;35.83;17.70;;;-1.50;99.90;;;;;;5065326;28;20137;-68
2023/03/01 00:47:56;;;;;;;37.05;18.88;;;-1.60;99.90;;;;;;5084324;28;20500;-68
2023/03/01 00:50:22;;;;;;;37.50;17.90;;;-1.50;99.90;;;;;;5077885;28;20036;-68
2023/03/01 00:52:51;;;;;;;40.65;18.83;;;-1.40;99.90;;;;;;5087791;28;20517;-68
2023/03/01 00:55:17;;;;;;;37.83;18.17;;;-1.40;99.90;;;;;;5071226;22;20049;-66
2023/03/01 00:57:43;;;;;;;33.83;15.98;;;-1.40;99.90;;;;;;5035904;28;20661;-66
2023/03/01 01:00:09;;;;;;;36.03;18.42;;;-1.40;99.90;;;;;;5049958;28;20408;-66
2023/03/01 01:02:35;;;;;;;37.08;17.67;;;-1.40;99.90;;;;;;5046902;28;20046;-66
2023/03/01 01:05:00;;;;;;;40.38;18.75;;;-1.40;99.90;;;;;;5021721;28;20045;-66
2023/03/01 01:07:26;;;;;;;40.35;19.63;;;-1.40;99.90;;;;;;5050436;28;20462;-66
2023/03/01 01:09:52;;;;;;;36.63;17.33;;;-1.40;99.90;;;;;;5052159;28;20043;-66
2023/03/01 01:12:17;;;;;;;38.42;18.88;;;-1.50;99.90;;;;;;5027420;28;20037;-65
2023/03/01 01:14:43;;;;;;;34.83;18.10;;;-1.60;99.90;;;;;;5029855;28;20041;-66
2023/03/01 01:17:09;;;;;;;37.42;17.90;;;-1.60;99.90;;;;;;5051692;28;20067;-66
2023/03/01 01:19:35;;;;;;;42.10;19.45;;;-1.60;99.90;;;;;;5034538;28;20043;-66
2023/03/01 01:22:00;;;;;;;39.10;20.00;;;-1.60;99.90;;;;;;5039249;28;20045;-66
2023/03/01 01:24:26;;;;;;;46.85;20.92;;;-1.60;99.90;;;;;;5047196;28;20104;-66
2023/03/01 01:26:51;;;;;;;40.80;20.20;;;-1.60;99.90;;;;;;5052156;28;20188;-66
2023/03/01 01:29:17;;;;;;;38.13;19.10;;;-1.60;99.90;;;;;;5044784;28;20108;-65
2023/03/01 01:31:43;;;;;;;41.80;18.95;;;-1.60;99.90;;;;;;5049943;28;20033;-66
2023/03/01 01:34:15;;;;;;;39.70;19.23;;;-1.60;99.90;;;;;;5034537;28;20037;-66
2023/03/01 01:36:40;;;;;;;39.60;19.98;;;-1.70;99.90;;;;;;5060677;28;20056;-67
2023/03/01 01:39:07;;;;;;;42.58;20.05;;;-1.70;99.90;;;;;;5030427;28;20106;-66
2023/03/01 01:41:33;;;;;;;40.78;18.95;;;-1.70;99.90;;;;;;5026994;28;20102;-65
2023/03/01 01:44:28;;;;;;;43.97;21.25;;;-1.70;99.90;;;;;;5033806;28;20037;-66
2023/03/01 01:47:18;;;;;;;38.20;17.55;;;-1.80;99.90;;;;;;5008539;28;20484;-66
2023/03/01 01:49:56;;;;;;;42.15;19.35;;;-1.80;99.90;;;;;;5021828;28;20048;-66
2023/03/01 01:52:27;;;;;;;37.35;17.95;;;-1.80;99.90;;;;;;5051807;28;20044;-66
2023/03/01 01:55:11;;;;;;;37.25;17.75;;;-2.00;99.90;;;;;;5040859;28;20045;-66
2023/03/01 01:58:02;;;;;;;45.15;20.25;;;-2.10;99.90;;;;;;5027265;28;20040;-65
2023/03/01 02:00:29;;;;;;;38.13;18.25;;;-2.10;99.90;;;;;;5031753;28;20038;-66
2023/03/01 02:02:59;;;;;;;40.40;19.17;;;-2.20;99.90;;;;;;5014132;28;20037;-66
2023/03/01 02:05:52;;;;;;;38.92;18.52;;;-2.30;99.90;;;;;;5033766;28;20032;-66
2023/03/01 02:08:20;;;;;;;34.58;16.50;;;-2.30;99.90;;;;;;5021456;28;20061;-65
2023/03/01 02:10:47;;;;;;;37.40;18.20;;;-2.40;99.90;;;;;;5048015;28;20047;-65
2023/03/01 02:13:13;;;;;;;35.30;18.35;;;-2.70;99.90;;;;;;5023847;28;20083;-66
2023/03/01 02:15:41;;;;;;;39.72;17.30;;;-2.80;99.90;;;;;;5033338;28;20064;-66
2023/03/01 02:18:09;;;;;;;98.60;21.90;;;-3.00;99.90;;;;;;5050902;28;20068;-66
2023/03/01 02:21:04;;;;;;;170.30;25.05;;;-3.10;99.90;;;;;;5045726;28;20086;-66
2023/03/01 02:23:30;;;;;;;218.95;22.15;;;-3.10;99.90;;;;;;5025324;28;20041;-66
2023/03/01 02:26:31;;;;;;;173.25;18.80;;;-3.20;99.90;;;;;;5040778;28;20404;-66
2023/03/01 02:28:57;;;;;;;120.32;17.40;;;-3.20;99.90;;;;;;5008015;28;20473;-65
2023/03/01 02:31:41;;;;;;;381.05;26.42;;;-3.20;99.90;;;;;;5043786;28;20041;-66
2023/03/01 02:34:19;;;;;;;196.13;19.05;;;-3.10;99.90;;;;;;5051736;28;20496;-66
2023/03/01 02:36:53;;;;;;;27.83;14.55;;;-3.10;99.90;;;;;;5045653;28;20537;-66
2023/03/01 02:39:25;;;;;;;253.00;19.92;;;-3.10;99.90;;;;;;5049272;28;20041;-66
2023/03/01 02:41:53;;;;;;;237.18;22.67;;;-3.10;99.90;;;;;;5050942;28;20063;-66
2023/03/01 02:44:20;;;;;;;414.65;27.40;;;-3.00;99.90;;;;;;5044741;28;20497;-65
2023/03/01 02:46:53;;;;;;;466.08;28.77;;;-3.10;99.90;;;;;;5033885;28;20045;-65
2023/03/01 02:49:26;;;;;;;377.23;23.80;;;-3.00;99.90;;;;;;5053082;28;20041;-66
2023/03/01 02:52:22;;;;;;;453.08;28.52;;;-3.10;99.90;;;;;;5062533;28;20481;-66
2023/03/01 02:54:48;;;;;;;397.17;23.20;;;-3.10;99.90;;;;;;5039730;28;20041;-66
2023/03/01 02:57:14;;;;;;;209.18;18.20;;;-3.10;99.90;;;;;;5052990;28;20103;-66
2023/03/01 02:59:42;;;;;;;280.98;19.83;;;-3.10;99.90;;;;;;5057699;28;20098;-66
2023/03/01 03:02:35;;;;;;;162.25;15.50;;;-3.10;99.90;;;;;;5046594;28;20044;-65
2023/03/01 03:05:02;;;;;;;178.20;17.27;;;-3.10;99.90;;;;;;5031890;28;20048;-65
2023/03/01 03:07:28;;;;;;;319.83;27.50;;;-3.00;99.90;;;;;;5061722;28;20084;-65
2023/03/01 03:09:53;;;;;;;256.98;23.60;;;-2.90;99.90;;;;;;5049820;28;20076;-65
2023/03/01 03:12:19;;;;;;;245.60;22.00;;;-2.90;99.90;;;;;;5043809;28;20497;-65
2023/03/01 03:14:44;;;;;;;133.50;18.00;;;-2.80;99.90;;;;;;5050621;28;20068;-65
2023/03/01 03:17:10;;;;;;;286.40;25.00;;;-2.80;99.90;;;;;;5034990;28;20049;-66
2023/03/01 03:19:35;;;;;;;403.77;31.05;;;-2.80;99.90;;;;;;5042940;28;20080;-65
2023/03/01 03:22:01;;;;;;;238.38;25.05;;;-2.70;99.90;;;;;;5051443;28;20061;-65
2023/03/01 03:24:37;;;;;;;93.35;19.73;;;-2.70;99.90;;;;;;5054602;28;20037;-65
2023/03/01 03:27:06;;;;;;;80.78;20.08;;;-2.70;99.90;;;;;;5043655;28;20045;-65
2023/03/01 03:29:32;;;;;;;145.80;22.88;;;-2.70;99.90;;;;;;5035756;28;20045;-65
2023/03/01 03:31:58;;;;;;;39.78;18.65;;;-2.70;99.90;;;;;;5056941;28;20128;-65
2023/03/01 03:34:23;;;;;;;213.95;26.48;;;-2.80;99.90;;;;;;5044633;28;20045;-65
2023/03/01 03:36:56;;;;;;;400.63;34.72;;;-2.90;99.90;;;;;;5048763;28;20496;-65
2023/03/01 03:39:23;;;;;;;462.98;34.92;;;-2.90;99.90;;;;;;5053550;28;20060;-65
2023/03/01 03:41:48;;;;;;;380.50;33.20;;;-2.80;99.90;;;;;;5033511;28;20639;-65
2023/03/01 03:44:14;;;;;;;250.63;31.70;;;-2.80;99.90;;;;;;5047058;28;20042;-64
2023/03/01 03:46:39;;;;;;;53.45;21.92;;;-2.80;99.90;;;;;;5053988;28;20048;-65
2023/03/01 03:49:05;;;;;;;65.50;27.13;;;-2.80;99.90;;;;;;5061155;28;20033;-65
2023/03/01 03:51:31;;;;;;;42.72;19.67;;;-2.90;99.90;;;;;;5042541;28;20597;-65
2023/03/01 03:53:56;;;;;;;48.80;22.95;;;-2.90;99.90;;;;;;5050050;28;20591;-65
2023/03/01 03:56:25;;;;;;;47.08;22.05;;;-3.00;99.90;;;;;;5053089;28;20116;-65
2023/03/01 03:58:51;;;;;;;34.42;16.98;;;-3.00;99.90;;;;;;5053490;28;20060;-65
2023/03/01 04:01:17;;;;;;;55.55;23.50;;;-3.00;99.90;;;;;;5047691;28;20089;-65
2023/03/01 04:03:46;;;;;;;46.83;23.38;;;-3.10;99.90;;;;;;5041589;28;20132;-65
2023/03/01 04:06:13;;;;;;;30.77;16.20;;;-3.10;99.90;;;;;;5053412;28;20071;-65
2023/03/01 04:08:39;;;;;;;29.92;15.20;;;-3.10;99.90;;;;;;5047628;28;20045;-65
2023/03/01 04:13:50;;;;;;;41.00;18.90;;;-3.10;99.90;;;;;;5054807;28;20632;-64
2023/03/01 04:16:17;;;;;;;43.83;20.38;;;-3.10;99.90;;;;;;5046165;28;20505;-65
2023/03/01 04:18:43;;;;;;;44.38;22.23;;;-3.10;99.90;;;;;;5047121;28;20446;-65
2023/03/01 04:21:10;;;;;;;39.78;19.23;;;-3.20;99.90;;;;;;5053685;28;20040;-65
2023/03/01 04:23:35;;;;;;;41.10;20.60;;;-3.30;99.90;;;;;;5059981;28;20062;-64
2023/03/01 04:26:01;;;;;;;43.47;19.50;;;-3.40;99.90;;;;;;5041324;28;20776;-65
2023/03/01 04:28:28;;;;;;;37.00;18.70;;;-3.30;99.90;;;;;;5052960;28;20043;-65
2023/03/01 04:30:55;;;;;;;36.40;18.45;;;-3.30;99.90;;;;;;5051092;28;20476;-64
2023/03/01 04:33:22;;;;;;;37.80;17.92;;;-3.30;99.90;;;;;;5073316;28;20054;-63
2023/03/01 04:35:49;;;;;;;41.40;17.83;;;-3.20;99.90;;;;;;5047694;28;20059;-64
2023/03/01 04:38:15;;;;;;;35.17;17.42;;;-3.10;99.90;;;;;;5047607;28;20037;-64
2023/03/01 04:40:42;;;;;;;38.75;18.05;;;-3.10;99.90;;;;;;5047491;28;20110;-64
2023/03/01 04:43:09;;;;;;;40.40;19.10;;;-3.10;99.90;;;;;;5042317;28;20109;-64
2023/03/01 04:45:35;;;;;;;38.47;18.10;;;-3.10;99.90;;;;;;5036478;28;20076;-65
2023/03/01 04:48:02;;;;;;;37.67;18.50;;;-3.10;99.90;;;;;;5039577;28;20471;-64
2023/03/01 04:50:27;;;;;;;38.17;19.00;;;-3.00;99.90;;;;;;5049468;28;20021;-64
2023/03/01 04:52:53;;;;;;;36.88;18.20;;;-3.10;99.90;;;;;;5059060;28;20550;-64
2023/03/01 04:55:19;;;;;;;36.67;17.67;;;-3.10;99.90;;;;;;5052240;28;20067;-64
2023/03/01 04:57:45;;;;;;;39.00;18.58;;;-3.10;99.90;;;;;;5040980;28;20047;-64
2023/03/01 05:00:21;;;;;;;36.88;17.33;;;-3.20;99.90;;;;;;5048578;28;20033;-64
2023/03/01 05:02:48;;;;;;;40.33;18.58;;;-3.20;99.90;;;;;;5027874;28;20480;-65
2023/03/01 05:05:15;;;;;;;37.72;18.65;;;-3.20;99.90;;;;;;5042699;28;20040;-64
2023/03/01 05:07:41;;;;;;;39.03;19.02;;;-3.20;99.90;;;;;;5045268;28;20049;-65
2023/03/01 05:10:07;;;;;;;37.15;19.35;;;-3.20;99.90;;;;;;5049609;28;20459;-64
2023/03/01 05:12:32;;;;;;;38.15;19.02;;;-3.30;99.90;;;;;;5053860;28;20538;-65
2023/03/01 05:14:58;;;;;;;42.08;19.50;;;-3.30;99.90;;;;;;5043819;28;20045;-65
2023/03/01 05:17:23;;;;;;;36.50;18.10;;;-3.30;99.90;;;;;;5038948;28;20071;-65
2023/03/01 05:19:50;;;;;;;35.80;18.52;;;-3.30;99.90;;;;;;5050097;28;20033;-64
2023/03/01 05:22:16;;;;;;;36.60;17.80;;;-3.30;99.90;;;;;;5054901;28;20045;-64
2023/03/01 05:24:41;;;;;;;36.05;15.25;;;-3.40;99.90;;;;;;5033640;28;20106;-64
2023/03/01 05:27:07;;;;;;;34.92;17.00;;;-3.40;99.90;;;;;;5051266;28;20520;-64
2023/03/01 05:29:34;;;;;;;32.33;15.13;;;-3.40;99.90;;;;;;5058850;28;20124;-64
2023/03/01 05:32:02;;;;;;;37.35;17.85;;;-3.50;99.90;;;;;;5042564;28;20069;-64
2023/03/01 05:34:30;;;;;;;30.63;15.23;;;-3.60;99.90;;;;;;5049481;28;20491;-64
2023/03/01 05:36:56;;;;;;;34.30;17.35;;;-3.60;99.90;;;;;;5059125;28;20123;-64
2023/03/01 05:39:24;;;;;;;38.80;18.17;;;-3.50;99.90;;;;;;5059026;28;20123;-64
2023/03/01 05:41:57;;;;;;;39.97;19.35;;;-3.40;99.90;;;;;;5051296;28;20037;-64
2023/03/01 05:44:24;;;;;;;43.30;19.48;;;-3.40;99.90;;;;;;5041302;28;20037;-64
2023/03/01 05:46:50;;;;;;;45.38;20.23;;;-3.30;99.90;;;;;;5018140;28;20049;-64
2023/03/01 05:49:16;;;;;;;36.45;17.92;;;-3.30;99.90;;;;;;5043881;28;20076;-64
2023/03/01 05:51:47;;;;;;;39.92;18.85;;;-3.20;99.90;;;;;;5051201;28;20090;-64
2023/03/01 05:54:12;;;;;;;43.75;18.45;;;-3.20;99.90;;;;;;5026217;28;20044;-65
2023/03/01 05:56:38;;;;;;;39.05;19.50;;;-3.20;99.90;;;;;;5033077;28;20044;-64
2023/03/01 05:59:07;;;;;;;40.63;19.50;;;-3.30;99.90;;;;;;5050685;28;20106;-64
2023/03/01 06:01:34;;;;;;;37.97;18.90;;;-3.20;99.90;;;;;;5044995;28;20037;-65
2023/03/01 06:04:00;;;;;;;41.97;19.67;;;-3.30;99.90;;;;;;5040787;28;20440;-65
2023/03/01 06:06:26;;;;;;;38.08;18.75;;;-3.30;99.90;;;;;;5041216;28;20040;-65
2023/03/01 06:08:53;;;;;;;42.05;19.60;;;-3.30;99.90;;;;;;5047822;28;20045;-65
2023/03/01 06:11:19;;;;;;;41.35;19.65;;;-3.30;99.90;;;;;;5047856;28;20068;-65
2023/03/01 06:13:46;;;;;;;40.10;19.85;;;-3.30;99.90;;;;;;5045609;28;20086;-65
2023/03/01 06:16:12;;;;;;;38.30;18.83;;;-3.30;99.90;;;;;;5023205;28;20059;-65
2023/03/01 06:18:38;;;;;;;39.55;18.40;;;-3.30;99.90;;;;;;5047959;28;20037;-65
2023/03/01 06:21:06;;;;;;;44.85;19.02;;;-3.30;99.90;;;;;;5042892;28;20043;-65
2023/03/01 06:23:32;;;;;;;38.00;17.77;;;-3.30;99.90;;;;;;5043192;28;20096;-64
2023/03/01 06:25:57;;;;;;;47.05;21.40;;;-3.40;99.90;;;;;;5048270;28;20677;-64
2023/03/01 06:28:23;;;;;;;33.30;16.48;;;-3.50;99.90;;;;;;5047579;28;20032;-64
2023/03/01 06:30:51;;;;;;;40.17;18.63;;;-3.50;99.90;;;;;;5043051;28;20037;-64
2023/03/01 06:33:19;;;;;;;39.30;20.55;;;-3.60;99.90;;;;;;5045272;28;20037;-64
2023/03/01 06:35:46;;;;;;;38.15;19.02;;;-3.60;99.90;;;;;;5050316;28;20033;-64
2023/03/01 06:38:14;;;;;;;35.70;16.92;;;-3.60;99.90;;;;;;5026200;28;20094;-65
2023/03/01 06:40:40;;;;;;;37.88;17.50;;;-3.60;99.90;;;;;;5049173;28;20044;-65
2023/03/01 06:43:07;;;;;;;39.13;18.08;;;-3.60;99.90;;;;;;5050891;28;20029;-65
2023/03/01 06:45:33;;;;;;;35.72;17.17;;;-3.70;99.90;;;;;;5043949;28;20116;-65
2023/03/01 06:48:04;;;;;;;31.42;15.70;;;-3.60;99.90;;;;;;5037794;28;20048;-65
2023/03/01 06:50:30;;;;;;;35.50;18.02;;;-3.70;99.90;;;;;;5047941;28;20041;-65
2023/03/01 06:52:57;;;;;;;35.58;17.67;;;-3.70;99.90;;;;;;5047870;28;20055;-65
2023/03/01 06:55:22;;;;;;;37.88;18.38;;;-3.60;99.90;;;;;;5028708;28;20102;-64
2023/03/01 06:57:48;;;;;;;36.55;17.80;;;-3.60;99.90;;;;;;5023110;28;20669;-65
2023/03/01 07:00:14;;;;;;;35.42;17.58;;;-3.50;99.90;;;;;;5045470;28;20606;-64
2023/03/01 07:02:40;;;;;;;39.00;18.25;;;-3.40;99.90;;;;;;5046195;28;20099;-64
2023/03/01 07:05:05;;;;;;;38.47;18.58;;;-3.50;99.90;;;;;;5040897;28;20069;-64
2023/03/01 07:07:31;;;;;;;33.80;17.40;;;-3.30;99.90;;;;;;5044508;28;20030;-66
2023/03/01 07:09:57;;;;;;;38.35;17.45;;;-3.30;99.90;;;;;;5032870;28;20400;-64
2023/03/01 07:12:22;;;;;;;44.05;19.88;;;-3.20;99.90;;;;;;5037807;28;20508;-64
2023/03/01 07:14:48;;;;;;;40.28;18.88;;;-3.20;99.90;;;;;;5047286;28;20053;-67
2023/03/01 07:17:14;;;;;;;44.97;20.02;;;-3.20;99.90;;;;;;5054180;28;20037;-67
2023/03/01 07:19:39;;;;;;;45.58;20.00;;;-2.90;99.90;;;;;;5050763;28;20563;-67
2023/03/01 07:22:07;;;;;;;44.08;19.65;;;-2.80;99.90;;;;;;5042319;28;20555;-67
2023/03/01 07:24:33;;;;;;;45.67;21.02;;;-2.70;99.90;;;;;;5049496;28;20048;-67
2023/03/01 07:26:59;;;;;;;44.67;20.10;;;-2.70;99.90;;;;;;5050246;28;20037;-67
2023/03/01 07:29:24;;;;;;;44.05;19.50;;;-2.60;99.90;;;;;;5034908;28;20040;-67
2023/03/01 07:31:50;;;;;;;36.25;17.83;;;-2.60;99.90;;;;;;5049693;28;20108;-65
2023/03/01 07:34:15;;;;;;;42.65;20.08;;;-2.60;99.90;;;;;;5037835;28;20052;-67
2023/03/01 07:36:42;;;;;;;39.53;19.05;;;-2.60;99.90;;;;;;5049061;28;20029;-67
2023/03/01 07:39:10;;;;;;;39.38;19.67;;;-2.50;99.90;;;;;;5050719;28;20456;-66
2023/03/01 07:41:35;;;;;;;43.08;20.75;;;-2.40;99.90;;;;;;5056379;28;20029;-66
2023/03/01 07:44:01;;;;;;;51.17;21.42;;;-2.40;99.90;;;;;;5061744;28;20767;-65
2023/03/01 07:46:26;;;;;;;44.50;21.83;;;-2.30;99.90;;;;;;5040101;28;20087;-66
2023/03/01 07:48:52;;;;;;;42.33;20.70;;;-2.30;99.90;;;;;;5047754;28;20497;-67
2023/03/01 07:51:18;;;;;;;42.97;20.77;;;-2.20;99.90;;;;;;5053757;28;20037;-66
2023/03/01 07:53:47;;;;;;;46.40;21.60;;;-2.10;99.90;;;;;;5048473;28;20041;-67
2023/03/01 07:56:14;;;;;;;45.83;22.38;;;-2.00;99.90;;;;;;5052002;28;20412;-66
2023/03/01 07:58:44;;;;;;;48.85;21.63;;;-1.90;99.90;;;;;;5053495;28;20037;-67
2023/03/01 08:01:13;;;;;;;47.95;23.10;;;-1.80;99.90;;;;;;5053928;28;20072;-66
2023/03/01 08:03:39;;;;;;;56.53;25.67;;;-1.80;99.90;;;;;;5042740;28;20465;-66
2023/03/01 08:06:07;;;;;;;56.35;25.83;;;-1.60;99.90;;;;;;5051790;28;20060;-65
2023/03/01 08:08:33;;;;;;;55.92;29.02;;;-1.50;99.90;;;;;;5058490;28;20106;-67
2023/03/01 08:11:02;;;;;;;56.75;29.25;;;-1.40;99.90;;;;;;5046964;28;21388;-67
2023/03/01 08:13:28;;;;;;;61.78;29.65;;;-1.20;99.90;;;;;;5026476;28;20086;-66
2023/03/01 08:15:53;;;;;;;56.55;27.90;;;-1.10;99.90;;;;;;5048209;28;20115;-67
2023/03/01 08:18:20;;;;;;;57.45;28.83;;;-1.00;99.90;;;;;;5045255;28;20120;-67
2023/03/01 08:20:46;;;;;;;61.53;29.58;;;-0.90;99.90;;;;;;5043665;28;20063;-67
2023/03/01 08:23:12;;;;;;;59.33;30.45;;;-0.80;99.90;;;;;;5042737;28;20056;-67
2023/03/01 08:25:38;;;;;;;58.40;30.13;;;-0.80;99.90;;;;;;5050559;28;20036;-66
2023/03/01 08:28:04;;;;;;;61.20;30.70;;;-0.60;99.90;;;;;;5053278;28;20041;-66
2023/03/01 08:30:29;;;;;;;65.75;30.17;;;-0.50;99.90;;;;;;5043245;28;20130;-65
2023/03/01 08:32:55;;;;;;;51.15;25.52;;;-0.40;99.90;;;;;;5048134;28;20126;-67
2023/03/01 08:35:21;;;;;;;51.25;25.88;;;-0.30;99.90;;;;;;5040266;28;20068;-67
2023/03/01 08:37:46;;;;;;;56.60;27.30;;;-0.20;99.90;;;;;;5045169;28;20048;-67
2023/03/01 08:40:13;;;;;;;57.47;28.90;;;-0.10;99.90;;;;;;5033456;28;20045;-66
2023/03/01 08:42:40;;;;;;;58.10;28.83;;;-0.10;99.90;;;;;;5051695;28;20098;-68
2023/03/01 08:45:07;;;;;;;55.85;28.58;;;0.10;99.90;;;;;;5034761;28;20099;-67
2023/03/01 08:47:33;;;;;;;55.45;27.08;;;0.10;99.90;;;;;;5048064;28;20045;-67
2023/03/01 08:49:59;;;;;;;59.95;26.80;;;0.20;99.90;;;;;;5036531;28;20099;-67
2023/03/01 08:52:26;;;;;;;56.20;27.08;;;0.30;99.90;;;;;;5047603;28;20439;-66
2023/03/01 08:54:52;;;;;;;47.13;25.27;;;0.40;99.90;;;;;;5040638;28;20053;-67
2023/03/01 08:57:18;;;;;;;58.95;28.70;;;0.50;99.90;;;;;;5050968;28;20045;-67
2023/03/01 08:59:44;;;;;;;59.45;28.45;;;0.60;99.90;;;;;;5052465;28;20090;-67
2023/03/01 09:02:16;;;;;;;61.00;28.30;;;0.70;99.90;;;;;;5041200;28;20037;-67
2023/03/01 09:04:42;;;;;;;50.75;25.15;;;0.70;99.90;;;;;;5042132;28;20248;-65
2023/03/01 09:07:08;;;;;;;52.00;25.15;;;0.80;99.90;;;;;;5042406;28;20508;-67
2023/03/01 09:09:34;;;;;;;61.95;27.42;;;1.00;99.90;;;;;;5038560;28;20025;-67
2023/03/01 09:12:00;;;;;;;54.58;27.08;;;1.00;99.90;;;;;;5048154;28;20029;-68
2023/03/01 09:14:26;;;;;;;57.10;26.67;;;1.10;99.90;;;;;;5034186;28;20048;-67
2023/03/01 09:16:51;;;;;;;58.22;25.20;;;1.30;99.90;;;;;;5015892;28;20049;-67
2023/03/01 09:19:17;;;;;;;49.30;23.67;;;1.40;99.90;;;;;;5040325;28;22360;-67
2023/03/01 09:21:52;;;;;;;48.20;23.02;;;1.50;99.90;;;;;;5041658;28;20116;-68
2023/03/01 09:24:22;;;;;;;45.55;21.17;;;1.60;99.90;;;;;;5045818;28;20485;-66
2023/03/01 09:26:48;;;;;;;36.55;19.45;;;1.70;99.90;;;;;;5037727;28;20052;-67
2023/03/01 09:29:14;;;;;;;34.90;18.23;;;1.80;99.90;;;;;;5049052;28;20052;-66
2023/03/01 09:31:40;;;;;;;32.13;18.08;;;2.00;99.90;;;;;;5051930;28;20167;-67
2023/03/01 09:34:07;;;;;;;30.88;16.65;;;2.10;99.90;;;;;;5036487;28;20041;-66
2023/03/01 09:36:33;;;;;;;34.33;17.10;;;2.20;99.90;;;;;;5041023;28;20540;-65
2023/03/01 09:38:59;;;;;;;27.48;15.10;;;2.30;99.90;;;;;;5048467;28;20143;-64
2023/03/01 09:41:46;;;;;;;21.33;12.38;;;2.60;99.90;;;;;;5044681;28;20044;-66
2023/03/01 09:44:25;;;;;;;23.48;13.43;;;2.70;99.90;;;;;;5048633;28;20102;-65
2023/03/01 09:46:51;;;;;;;26.33;14.95;;;2.80;99.90;;;;;;5051562;28;20152;-65
2023/03/01 09:49:27;;;;;;;23.25;12.48;;;2.90;99.90;;;;;;5029621;28;20041;-64
2023/03/01 09:52:00;;;;;;;18.83;11.20;;;3.00;99.90;;;;;;5034958;28;20049;-65
2023/03/01 09:54:26;;;;;;;21.23;12.02;;;3.10;99.90;;;;;;5043479;28;20072;-65
2023/03/01 09:57:43;;;;;;;22.40;11.50;;;3.30;99.90;;;;;;5051634;28;20072;-64
2023/03/01 10:00:44;;;;;;;21.08;12.20;;;3.30;99.90;;;;;;5010868;28;20049;-65
2023/03/01 10:03:16;;;;;;;17.20;9.40;;;3.40;99.90;;;;;;5051245;28;20052;-65
2023/03/01 10:05:57;;;;;;;19.58;10.23;;;3.50;99.90;;;;;;5033677;28;20122;-65
2023/03/01 10:08:41;;;;;;;19.35;10.27;;;3.70;99.90;;;;;;5023174;28;20075;-65
2023/03/01 10:11:17;;;;;;;20.05;9.32;;;3.70;99.90;;;;;;5051194;28;20520;-65
2023/03/01 10:13:48;;;;;;;18.80;9.27;;;3.70;99.90;;;;;;5050979;28;20075;-67
2023/03/01 10:16:37;;;;;;;15.13;8.25;;;3.80;99.90;;;;;;5009711;28;20090;-65
2023/03/01 10:19:06;;;;;;;15.35;6.45;;;3.90;99.90;;;;;;5037540;28;20041;-67
2023/03/01 10:21:41;;;;;;;13.40;6.32;;;3.90;99.90;;;;;;5044889;28;20043;-66
2023/03/01 10:24:16;;;;;;;11.27;6.60;;;4.00;99.90;;;;;;5026420;28;20133;-65
2023/03/01 10:26:51;;;;;;;10.60;6.25;;;4.10;99.90;;;;;;5029251;28;20527;-66
2023/03/01 10:29:16;;;;;;;13.05;6.68;;;4.20;99.90;;;;;;5049750;28;20378;-65
2023/03/01 10:31:51;;;;;;;15.73;7.72;;;4.20;99.90;;;;;;5042370;28;20532;-64
2023/03/01 10:34:26;;;;;;;14.05;7.80;;;4.20;99.90;;;;;;5014128;28;20045;-64
2023/03/01 10:36:56;;;;;;;12.30;7.63;;;4.20;99.90;;;;;;5046691;28;20718;-65
2023/03/01 10:39:25;;;;;;;13.02;6.50;;;4.20;99.90;;;;;;5050578;28;20427;-65
2023/03/01 10:42:03;;;;;;;9.98;5.45;;;4.40;99.90;;;;;;5042577;28;20038;-65
2023/03/01 10:44:47;;;;;;;9.98;5.43;;;4.40;99.90;;;;;;5049769;28;20044;-64
2023/03/01 10:47:15;;;;;;;14.35;5.80;;;4.50;99.90;;;;;;5050406;28;20144;-70
2023/03/01 10:49:51;;;;;;;11.75;6.45;;;4.50;99.90;;;;;;5042510;28;20072;-65
2023/03/01 10:52:23;;;;;;;11.60;6.65;;;4.70;99.90;;;;;;5031954;28;20040;-65
2023/03/01 10:54:59;;;;;;;9.98;5.95;;;4.70;99.90;;;;;;5033277;28;20067;-66
2023/03/01 10:57:36;;;;;;;11.68;6.00;;;4.70;99.90;;;;;;5021606;28;20041;-69
2023/03/01 11:00:19;;;;;;;9.80;6.15;;;4.80;99.90;;;;;;5050233;28;20045;-65
2023/03/01 11:03:03;;;;;;;13.43;6.35;;;4.80;99.90;;;;;;5051080;28;20037;-65
2023/03/01 11:05:30;;;;;;;9.50;5.93;;;4.80;99.90;;;;;;5019267;28;20121;-64
2023/03/01 11:08:01;;;;;;;11.77;6.10;;;5.00;99.90;;;;;;5049445;28;20051;-65
2023/03/01 11:10:35;;;;;;;9.70;5.90;;;5.00;99.90;;;;;;5032748;28;20039;-67
2023/03/01 11:13:19;;;;;;;11.00;5.90;;;5.10;99.90;;;;;;5043661;28;20065;-67
2023/03/01 11:16:03;;;;;;;9.52;5.88;;;5.10;99.90;;;;;;5045031;28;20116;-65
2023/03/01 11:18:30;;;;;;;10.05;5.68;;;5.20;99.90;;;;;;5037425;28;20049;-65
2023/03/01 11:20:58;;;;;;;11.65;5.97;;;5.10;99.90;;;;;;5052063;28;20037;-65
2023/03/01 11:23:25;;;;;;;11.32;5.78;;;5.20;99.90;;;;;;5021884;28;20056;-66
2023/03/01 11:26:04;;;;;;;8.77;6.00;;;5.40;99.90;;;;;;5032047;28;20045;-65
2023/03/01 11:28:30;;;;;;;9.70;6.00;;;5.50;99.90;;;;;;5054148;28;20040;-65
2023/03/01 11:31:05;;;;;;;10.93;6.15;;;5.50;99.90;;;;;;5043371;28;20037;-66
2023/03/01 11:33:37;;;;;;;13.43;6.88;;;5.60;99.90;;;;;;5015451;28;20049;-66
2023/03/01 11:36:07;;;;;;;13.15;7.03;;;5.70;99.90;;;;;;5017353;28;20162;-66
2023/03/01 11:38:36;;;;;;;12.35;7.03;;;5.70;99.90;;;;;;5041482;28;20051;-66
2023/03/01 11:41:12;;;;;;;15.55;7.47;;;5.80;99.90;;;;;;5052909;28;20425;-65
2023/03/01 11:43:52;;;;;;;11.90;6.90;;;5.80;99.90;;;;;;5025648;28;20052;-67
2023/03/01 11:46:32;;;;;;;15.57;8.55;;;5.80;99.90;;;;;;5052660;28;20416;-65
2023/03/01 11:49:15;;;;;;;15.57;8.57;;;5.90;99.90;;;;;;5054210;28;20045;-65
2023/03/01 11:51:47;;;;;;;14.70;7.80;;;6.10;99.90;;;;;;5010039;28;20045;-66
2023/03/01 11:54:28;;;;;;;13.05;8.05;;;6.10;99.90;;;;;;5051918;28;20048;-65
2023/03/01 11:57:15;;;;;;;14.57;8.50;;;6.10;99.90;;;;;;5042535;28;20095;-66
2023/03/01 11:59:59;;;;;;;13.20;8.27;;;6.10;99.90;;;;;;5029757;28;20045;-68
2023/03/01 12:02:27;;;;;;;15.60;8.27;;;6.20;99.90;;;;;;5036004;28;20144;-65
2023/03/01 12:05:25;;;;;;;13.98;8.25;;;6.30;99.90;;;;;;5049457;28;20055;-66
2023/03/01 12:08:16;;;;;;;14.23;7.75;;;6.40;99.90;;;;;;5042398;28;20041;-67
2023/03/01 12:11:11;;;;;;;13.20;7.75;;;6.40;99.90;;;;;;5045010;28;20043;-65
2023/03/01 12:13:47;;;;;;;14.75;7.60;;;6.50;99.90;;;;;;5044772;28;20048;-65
2023/03/01 12:16:26;;;;;;;13.25;8.05;;;6.50;99.90;;;;;;5046042;28;20385;-66
2023/03/01 12:19:26;;;;;;;12.90;7.60;;;6.60;99.90;;;;;;5049796;28;20048;-65
2023/03/01 12:22:21;;;;;;;12.73;7.32;;;6.70;99.90;;;;;;5030089;28;20492;-65
2023/03/01 12:25:28;;;;;;;14.18;7.75;;;6.80;99.90;;;;;;5052469;28;20064;-66
2023/03/01 12:28:17;;;;;;;12.60;7.53;;;6.80;99.90;;;;;;5039893;28;20037;-64
2023/03/01 12:31:04;;;;;;;13.02;7.55;;;6.90;99.90;;;;;;5039716;28;20068;-67
2023/03/01 12:33:44;;;;;;;11.65;7.70;;;6.90;99.90;;;;;;5031703;28;20037;-65
2023/03/01 12:36:36;;;;;;;11.60;7.20;;;6.90;99.90;;;;;;5033668;28;20554;-65
2023/03/01 12:39:20;;;;;;;12.02;7.55;;;6.90;99.90;;;;;;5030587;28;20465;-68
2023/03/01 12:41:56;;;;;;;15.20;8.63;;;7.00;99.90;;;;;;5045906;28;20045;-65
2023/03/01 12:45:02;;;;;;;13.70;7.95;;;7.00;99.90;;;;;;5032789;28;20413;-65
2023/03/01 12:47:49;;;;;;;13.25;7.38;;;7.10;99.90;;;;;;5001907;28;20052;-66
2023/03/01 12:50:25;;;;;;;12.77;6.75;;;7.10;99.90;;;;;;5046404;28;20045;-65